Time;durP1;ratioP1;P1;durP2;ratioP2;P2;SDS_P1;SDS_P2;PMS_P1;PMS_P2;Temp;Humidity;BMP_temperature;BMP_pressure;BME280_temperature;BME280_humidity;BME280_pressure;Samples;Min_cycle;Max_cycle;Signal;HPM_P1;HPM_P2
2021/04/12 00:00:26;;;;;;;43.05;23.10;;;;;;;1.97;68.69;100212.83;1799425;79;21378;-62
2021/04/12 00:03:05;;;;;;;45.48;25.15;;;;;;;1.96;68.72;100209.83;1822174;78;21111;-60
2021/04/12 00:06:06;;;;;;;42.93;26.33;;;;;;;1.94;69.54;100202.13;1793705;78;21531;-62
2021/04/12 00:08:48;;;;;;;49.40;25.08;;;;;;;1.92;70.61;100201.67;1738134;82;21242;-61
2021/04/12 00:11:36;;;;;;;;;;;;;;;1.90;70.92;100209.78;1816536;78;21088;-61
2021/04/12 00:14:11;;;;;;;56.02;26.85;;;;;;;1.90;70.72;100206.80;1822288;78;21201;-60
2021/04/12 00:17:03;;;;;;;48.15;26.45;;;;;;;1.88;70.50;100208.49;1806431;79;20949;-60
2021/04/12 00:19:54;;;;;;;48.00;28.85;;;;;;;1.87;71.32;100207.20;1822161;78;21024;-60
2021/04/12 00:22:37;;;;;;;52.67;28.62;;;;;;;1.87;72.11;100195.66;1777759;79;21166;-60
2021/04/12 00:25:14;;;;;;;57.73;26.77;;;;;;;1.87;72.60;100193.95;1822202;78;21095;-60
2021/04/12 00:27:51;;;;;;;51.00;26.33;;;;;;;1.87;72.84;100198.22;1806507;79;22241;-60
2021/04/12 00:30:29;;;;;;;49.80;27.02;;;;;;;1.84;72.83;100190.08;1821394;78;21064;-60
2021/04/12 00:33:30;;;;;;;48.58;27.27;;;;;;;1.80;72.93;100190.08;1795326;78;21060;-60
2021/04/12 00:36:26;;;;;;;47.62;25.75;;;;;;;1.77;72.93;100197.75;1820455;78;21075;-60
2021/04/12 00:39:13;;;;;;;48.95;27.65;;;;;;;1.73;73.06;100190.04;1796331;79;21093;-60
2021/04/12 00:41:58;;;;;;;49.88;26.52;;;;;;;1.71;73.00;100196.86;1787095;79;21361;-63
2021/04/12 00:45:02;;;;;;;47.67;25.40;;;;;;;1.69;72.56;100188.72;1796252;79;21070;-61
2021/04/12 00:47:56;;;;;;;53.85;25.10;;;;;;;1.65;72.54;100188.27;1796572;79;21034;-61
2021/04/12 00:51:21;;;;;;;44.50;25.70;;;;;;;1.62;72.91;100183.11;1786127;79;21612;-60
2021/04/12 00:54:06;;;;;;;49.40;27.20;;;;;;;1.59;73.23;100182.70;1796312;79;21055;-60
2021/04/12 00:56:42;;;;;;;44.65;26.37;;;;;;;1.58;73.18;100180.13;1796355;79;21269;-60
2021/04/12 00:59:40;;;;;;;46.65;25.17;;;;;;;1.55;73.25;100174.97;1785472;79;21519;-61
2021/04/12 01:02:54;;;;;;;42.88;23.45;;;;;;;1.54;73.35;100176.68;1796259;79;21042;-60
2021/04/12 01:05:59;;;;;;;40.08;23.45;;;;;;;1.53;73.51;100180.09;1811012;79;21159;-60
2021/04/12 01:08:48;;;;;;;55.63;26.73;;;;;;;1.52;73.74;100172.38;1796451;79;21082;-61
2021/04/12 01:11:55;;;;;;;46.40;25.05;;;;;;;1.51;73.91;100161.27;1810943;79;21360;-60
2021/04/12 01:15:21;;;;;;;50.28;24.92;;;;;;;1.49;74.05;100159.55;1796323;79;21137;-60
2021/04/12 01:18:38;;;;;;;47.70;24.23;;;;;;;1.46;74.10;100159.52;1810995;79;21056;-60
2021/04/12 01:21:27;;;;;;;46.00;23.73;;;;;;;1.43;74.46;100152.66;1796295;79;21780;-60
2021/04/12 01:24:26;;;;;;;41.55;23.10;;;;;;;1.41;74.74;100152.22;1811099;79;21579;-60
2021/04/12 01:27:11;;;;;;;43.15;23.18;;;;;;;1.41;74.95;100151.80;1796261;79;21376;-60
2021/04/12 01:30:17;;;;;;;41.37;22.85;;;;;;;1.38;74.94;100146.25;1796169;79;20940;-60
2021/04/12 01:33:39;;;;;;;47.43;24.70;;;;;;;1.38;75.11;100141.13;1810147;79;21558;-60
2021/04/12 01:36:57;;;;;;;48.00;23.65;;;;;;;1.38;75.22;100132.58;1751314;82;21090;-60
2021/04/12 01:40:16;;;;;;;43.70;24.30;;;;;;;1.35;75.18;100138.54;1810961;79;21124;-60
2021/04/12 01:42:54;;;;;;;50.40;25.37;;;;;;;1.30;75.39;100132.52;1796087;78;21385;-60
2021/04/12 01:45:39;;;;;;;50.30;24.25;;;;;;;1.30;75.56;100134.23;1810911;79;21179;-61
2021/04/12 01:48:58;;;;;;;47.88;24.15;;;;;;;1.27;75.61;100121.39;1796255;79;21082;-61
2021/04/12 01:52:01;;;;;;;45.88;25.57;;;;;;;1.27;75.67;100123.95;1810865;79;21690;-60
2021/04/12 01:54:59;;;;;;;42.13;25.30;;;;;;;1.25;75.64;100116.25;1796082;79;21054;-61
2021/04/12 01:57:40;;;;;;;53.02;29.42;;;;;;;1.24;75.57;100112.39;1796232;78;21203;-61
2021/04/12 02:00:37;;;;;;;61.05;31.68;;;;;;;1.20;75.46;100106.84;1810933;79;21048;-61
2021/04/12 02:03:19;;;;;;;50.40;29.00;;;;;;;1.19;75.58;100106.41;1796196;79;21097;-62
2021/04/12 02:06:11;;;;;;;46.85;27.58;;;;;;;1.19;75.63;100098.72;1810928;79;21524;-61
2021/04/12 02:08:47;;;;;;;52.00;27.70;;;;;;;1.18;75.49;100101.70;1795689;79;21074;-61
2021/04/12 02:11:38;;;;;;;48.00;26.87;;;;;;;1.14;75.43;100097.41;1811038;79;22245;-61
2021/04/12 02:14:57;;;;;;;49.08;27.32;;;;;;;1.11;75.27;100096.09;1796103;79;21163;-61
2021/04/12 02:17:36;;;;;;;44.65;25.43;;;;;;;1.06;75.14;100094.34;1718295;83;21203;-60
2021/04/12 02:20:28;;;;;;;49.50;26.25;;;;;;;0.99;75.44;100092.19;1811117;78;21067;-60
2021/04/12 02:23:24;;;;;;;48.48;26.35;;;;;;;0.96;75.73;100084.48;1820551;78;21091;-60
2021/04/12 02:26:24;;;;;;;55.25;26.93;;;;;;;0.94;75.85;100084.88;1796242;79;21637;-61
2021/04/12 02:29:20;;;;;;;44.38;26.23;;;;;;;0.93;76.14;100087.01;1810973;79;21146;-60
2021/04/12 02:32:09;;;;;;;47.95;25.92;;;;;;;0.93;76.42;100078.05;1802770;79;21081;-60
2021/04/12 02:35:07;;;;;;;43.65;25.55;;;;;;;0.93;76.57;100078.91;1822106;78;21055;-60
2021/04/12 02:38:15;;;;;;;50.43;25.15;;;;;;;0.94;76.73;100078.06;1806400;79;21108;-60
2021/04/12 02:41:12;;;;;;;40.55;26.00;;;;;;;0.96;76.75;100081.91;1822095;78;22379;-60
2021/04/12 02:44:15;;;;;;;40.15;24.15;;;;;;;0.94;76.88;100084.46;1806349;79;21476;-61
2021/04/12 02:47:18;;;;;;;39.00;23.10;;;;;;;0.93;76.88;100084.02;1822118;78;21162;-62
2021/04/12 02:50:09;;;;;;;44.35;24.27;;;;;;;0.92;76.96;100077.61;1806246;79;21076;-61
2021/04/12 02:53:23;;;;;;;42.98;24.18;;;;;;;0.90;76.96;100083.14;1806388;79;21048;-61
2021/04/12 02:56:38;;;;;;;42.55;24.63;;;;;;;0.89;76.98;100083.98;1822099;78;23437;-60
2021/04/12 02:59:43;;;;;;;50.10;23.87;;;;;;;0.88;77.00;100085.69;1806287;79;21143;-60
2021/04/12 03:02:32;;;;;;;43.17;22.98;;;;;;;0.87;77.06;100084.39;1822094;78;21039;-60
2021/04/12 03:05:36;;;;;;;45.70;23.65;;;;;;;0.84;76.82;100083.09;1821824;78;21072;-61
2021/04/12 03:08:28;;;;;;;;;;;;;;;0.79;76.82;100084.78;1809091;78;21115;-61
2021/04/12 03:11:34;;;;;;;41.28;21.93;;;;;;;0.75;77.01;100084.31;1806283;79;21206;-61
2021/04/12 03:14:24;;;;;;;40.45;22.77;;;;;;;0.69;77.09;100078.30;1821977;78;21059;-61
2021/04/12 03:17:24;;;;;;;39.70;22.55;;;;;;;0.67;77.07;100081.68;1806400;79;21147;-61
2021/04/12 03:20:17;;;;;;;48.38;26.23;;;;;;;0.64;77.18;100068.85;1794137;78;21169;-60
2021/04/12 03:23:28;;;;;;;46.85;25.10;;;;;;;0.63;77.20;100073.53;1745938;78;21082;-61
2021/04/12 03:26:02;;;;;;;51.15;25.35;;;;;;;0.60;77.18;100070.52;1822255;78;21571;-61
2021/04/12 03:29:27;;;;;;;41.10;23.22;;;;;;;0.58;77.40;100068.83;1822279;78;21505;-60
2021/04/12 03:32:24;;;;;;;40.30;22.90;;;;;;;0.62;77.51;100070.12;1821073;78;21083;-61
2021/04/12 03:35:12;;;;;;;36.08;21.25;;;;;;;0.64;77.38;100060.75;1795517;79;21153;-62
2021/04/12 03:38:17;;;;;;;39.08;21.80;;;;;;;0.64;77.32;100062.03;1811116;79;21056;-61
2021/04/12 03:41:20;;;;;;;43.35;21.20;;;;;;;0.65;77.30;100060.33;1796359;79;21382;-61
2021/04/12 03:44:43;;;;;;;49.98;22.20;;;;;;;0.68;77.09;100057.80;1810937;79;21079;-60
2021/04/12 03:47:25;;;;;;;57.03;22.73;;;;;;;0.68;77.01;100062.50;1796428;79;21478;-61
2021/04/12 03:50:18;;;;;;;58.98;23.67;;;;;;;0.74;76.88;100060.84;1810997;79;21586;-61
2021/04/12 03:53:24;;;;;;;38.08;16.05;;;;;;;0.77;76.90;100069.41;1796480;79;21121;-61
2021/04/12 03:56:42;;;;;;;45.70;20.65;;;;;;;0.84;76.81;100066.44;1811072;79;21477;-61
2021/04/12 03:59:58;;;;;;;38.20;20.37;;;;;;;0.89;76.71;100068.20;1796228;79;21979;-62
2021/04/12 04:03:00;;;;;;;42.40;22.60;;;;;;;0.95;76.64;100067.39;1811012;79;21096;-61
2021/04/12 04:05:55;;;;;;;41.50;21.52;;;;;;;0.99;76.68;100060.17;1792624;79;21488;-61
2021/04/12 04:08:43;;;;;;;39.85;20.72;;;;;;;1.03;76.78;100052.48;1811021;79;21111;-62
2021/04/12 04:11:52;;;;;;;39.13;20.15;;;;;;;1.10;76.82;100055.95;1793911;79;22294;-61
2021/04/12 04:15:03;;;;;;;59.67;22.93;;;;;;;1.19;76.77;100057.73;1811001;79;21056;-62
2021/04/12 04:18:01;;;;;;;44.30;21.80;;;;;;;1.30;76.80;100062.47;1796033;79;21470;-61
2021/04/12 04:20:41;;;;;;;38.70;20.50;;;;;;;1.43;76.62;100056.97;1810949;79;21044;-62
2021/04/12 04:23:31;;;;;;;37.70;20.50;;;;;;;1.52;76.26;100058.31;1796424;79;21031;-61
2021/04/12 04:26:30;;;;;;;55.00;25.15;;;;;;;1.59;75.99;100051.94;1754490;79;21258;-60
2021/04/12 04:29:18;;;;;;;34.53;18.87;;;;;;;1.68;75.48;100053.24;1796191;79;21066;-61
2021/04/12 04:32:30;;;;;;;35.95;19.62;;;;;;;1.82;74.86;100049.43;1781979;78;21515;-60
2021/04/12 04:35:44;;;;;;;26.33;18.02;;;;;;;1.92;74.31;100046.48;1818662;79;21056;-61
2021/04/12 04:38:55;;;;;;;40.12;19.23;;;;;;;2.08;73.55;100042.66;1807425;79;21056;-61
2021/04/12 04:42:06;;;;;;;33.23;18.07;;;;;;;2.30;72.75;100044.84;1825638;78;21208;-62
2021/04/12 04:45:08;;;;;;;37.23;19.07;;;;;;;2.49;71.76;100052.55;1807154;79;21571;-61
2021/04/12 04:48:21;;;;;;;34.30;19.35;;;;;;;2.64;71.09;100048.27;1825568;78;21535;-61
2021/04/12 04:51:18;;;;;;;34.88;18.73;;;;;;;2.83;70.79;100044.39;1807348;79;21456;-60
2021/04/12 04:54:20;;;;;;;36.70;19.95;;;;;;;3.02;70.30;100044.37;1825646;78;21108;-61
2021/04/12 04:57:16;;;;;;;32.30;18.73;;;;;;;3.19;69.68;100046.07;1807361;79;22270;-61
2021/04/12 05:00:10;;;;;;;32.85;18.60;;;;;;;3.38;69.10;100037.44;1825553;78;21104;-61
2021/04/12 05:03:00;;;;;;;88.40;21.20;;;;;;;3.65;68.57;100039.03;1807231;79;21481;-61
2021/04/12 05:05:40;;;;;;;34.75;18.92;;;;;;;3.94;67.84;100036.33;1824783;78;21492;-61
2021/04/12 05:08:37;;;;;;;55.50;21.25;;;;;;;4.20;67.38;100033.59;1806866;79;21053;-62
2021/04/12 05:11:47;;;;;;;27.90;18.50;;;;;;;4.49;66.64;100030.36;1822352;78;21135;-62
2021/04/12 05:14:54;;;;;;;83.42;23.77;;;;;;;4.76;65.78;100021.13;1776847;79;21594;-62
2021/04/12 05:17:54;;;;;;;54.00;22.65;;;;;;;4.97;64.65;100020.06;1815580;78;21139;-61
2021/04/12 05:20:57;;;;;;;54.55;32.60;;;;;;;5.13;64.08;100011.72;1775355;80;21476;-63
2021/04/12 05:23:53;;;;;;;51.05;25.37;;;;;;;5.35;63.77;100009.77;1809729;78;21201;-61
2021/04/12 05:26:50;;;;;;;68.33;27.27;;;;;;;5.68;63.22;99997.72;1782702;79;21466;-61
2021/04/12 05:29:52;;;;;;;54.67;27.98;;;;;;;6.02;62.05;100001.15;1731307;81;21502;-62
2021/04/12 05:32:32;;;;;;;43.30;25.72;;;;;;;6.32;61.18;100003.72;1780085;80;21472;-61
2021/04/12 05:35:39;;;;;;;47.83;26.75;;;;;;;6.63;59.65;100007.94;1780597;80;21056;-61
2021/04/12 05:38:35;;;;;;;42.45;26.37;;;;;;;6.85;58.81;100007.55;1806301;79;21133;-62
2021/04/12 05:41:28;;;;;;;43.30;25.08;;;;;;;7.11;57.91;99999.31;1797607;78;21803;-62
2021/04/12 05:44:16;;;;;;;46.30;24.55;;;;;;;7.37;56.91;100006.58;1788387;80;21206;-62
2021/04/12 05:47:07;;;;;;;41.65;26.25;;;;;;;7.51;55.92;100005.85;1788684;80;21107;-61
2021/04/12 05:49:56;;;;;;;48.75;31.10;;;;;;;7.56;55.64;100004.03;1789810;80;21555;-60
2021/04/12 05:52:32;;;;;;;43.63;24.95;;;;;;;7.62;55.23;100013.37;1789753;80;21559;-61
2021/04/12 05:55:22;;;;;;;42.93;25.55;;;;;;;7.69;54.99;100011.53;1789740;80;21297;-61
2021/04/12 05:58:30;;;;;;;36.40;21.75;;;;;;;7.76;54.95;100003.61;1789338;79;21087;-68
2021/04/12 06:01:49;;;;;;;40.45;22.50;;;;;;;7.86;53.62;99999.06;1745999;80;21075;-70
2021/04/12 06:04:25;;;;;;;39.58;23.98;;;;;;;7.95;53.56;100005.35;1789706;80;21602;-69
2021/04/12 06:07:18;;;;;;;47.45;27.20;;;;;;;8.05;53.82;99999.06;1789645;80;21507;-61
2021/04/12 06:10:11;;;;;;;39.30;25.25;;;;;;;8.15;53.41;100001.87;1797353;78;22145;-64
2021/04/12 06:12:53;;;;;;;38.98;24.35;;;;;;;8.28;53.36;100001.12;1789359;78;21185;-63
2021/04/12 06:15:49;;;;;;;38.30;24.47;;;;;;;8.42;52.73;99999.08;1789222;80;21056;-63
2021/04/12 06:18:50;;;;;;;38.95;24.47;;;;;;;8.60;52.48;99997.77;1788937;80;21190;-64
2021/04/12 06:21:52;;;;;;;47.27;24.60;;;;;;;8.76;51.92;99995.22;1785775;80;21222;-63
2021/04/12 06:24:40;;;;;;;42.33;24.18;;;;;;;8.98;51.56;99987.28;1786200;80;21199;-64
2021/04/12 06:27:31;;;;;;;52.30;25.20;;;;;;;9.21;51.00;99984.04;1788302;80;21119;-64
2021/04/12 06:30:19;;;;;;;40.63;26.00;;;;;;;9.40;50.57;99983.07;1788902;79;21335;-62
2021/04/12 06:33:27;;;;;;;35.70;24.95;;;;;;;9.61;49.62;99981.60;1789178;80;21155;-63
2021/04/12 06:36:33;;;;;;;35.83;24.95;;;;;;;9.81;48.88;99972.77;1789603;80;21099;-63
2021/04/12 06:39:13;;;;;;;39.00;25.60;;;;;;;10.03;48.13;99975.56;1789482;80;21368;-62
2021/04/12 06:42:26;;;;;;;51.37;26.65;;;;;;;10.27;47.17;99968.33;1789550;79;21193;-62
2021/04/12 06:45:46;;;;;;;43.20;24.43;;;;;;;10.46;45.47;99963.37;1789582;80;21158;-62
2021/04/12 06:48:51;;;;;;;34.78;23.77;;;;;;;10.64;44.18;99965.36;1789372;80;21158;-61
2021/04/12 06:51:59;;;;;;;32.98;23.65;;;;;;;10.81;43.12;99958.27;1789670;80;21072;-62
2021/04/12 06:55:01;;;;;;;31.68;24.55;;;;;;;10.97;42.62;99962.52;1789975;80;22274;-63
2021/04/12 06:58:04;;;;;;;40.95;24.80;;;;;;;11.12;41.95;99958.05;1793843;78;21060;-62
2021/04/12 07:01:06;;;;;;;38.63;23.67;;;;;;;11.29;42.09;99960.05;1828422;78;21060;-63
2021/04/12 07:04:10;;;;;;;38.35;24.10;;;;;;;11.43;41.52;99951.27;1804914;79;21131;-61
2021/04/12 07:07:34;;;;;;;34.05;23.02;;;;;;;11.59;41.17;99947.66;1839426;78;21047;-62
2021/04/12 07:10:59;;;;;;;33.90;22.90;;;;;;;11.78;41.16;99956.95;1696038;84;21208;-62
2021/04/12 07:13:57;;;;;;;33.30;23.10;;;;;;;12.01;40.88;99951.20;1813424;79;21139;-62
2021/04/12 07:17:16;;;;;;;33.45;20.48;;;;;;;12.18;38.80;99953.63;1839440;78;21481;-62
2021/04/12 07:20:19;;;;;;;28.55;19.98;;;;;;;12.27;37.83;99942.34;1806175;79;21118;-62
2021/04/12 07:23:20;;;;;;;25.43;19.60;;;;;;;12.31;37.64;99950.44;1806478;79;21165;-62
2021/04/12 07:26:13;;;;;;;21.45;17.05;;;;;;;12.39;37.49;99942.28;1805537;79;21469;-63
2021/04/12 07:29:19;;;;;;;22.40;17.62;;;;;;;12.52;37.25;99929.59;1805195;78;21993;-64
2021/04/12 07:32:19;;;;;;;23.10;18.23;;;;;;;12.67;36.87;99921.95;1806314;78;21056;-61
2021/04/12 07:35:25;;;;;;;24.47;17.37;;;;;;;12.87;36.91;99921.09;1822124;78;21075;-63
2021/04/12 07:38:49;;;;;;;23.18;16.55;;;;;;;13.07;36.06;99910.63;1806356;79;21493;-62
2021/04/12 07:41:41;;;;;;;22.20;16.15;;;;;;;13.23;35.80;99905.59;1821750;78;22011;-63
2021/04/12 07:44:36;;;;;;;23.65;15.95;;;;;;;13.39;35.12;99907.03;1804673;79;21521;-62
2021/04/12 07:47:59;;;;;;;23.52;17.62;;;;;;;13.54;34.80;99897.20;1889126;76;21848;-62
2021/04/12 07:50:55;;;;;;;20.62;16.70;;;;;;;13.61;35.53;99899.05;1860536;77;21556;-62
2021/04/12 07:53:51;;;;;;;19.92;14.87;;;;;;;13.76;34.29;99900.50;1860540;77;21231;-61
2021/04/12 07:57:16;;;;;;;20.23;15.28;;;;;;;13.84;33.64;99893.58;1860112;77;21064;-62
2021/04/12 08:00:27;;;;;;;20.70;13.28;;;;;;;13.95;34.15;99900.92;1824191;78;21144;-63
2021/04/12 08:03:20;;;;;;;18.12;13.48;;;;;;;14.03;32.83;99883.06;1826412;78;21163;-63
2021/04/12 08:06:05;;;;;;;17.25;13.15;;;;;;;14.08;33.00;99883.70;1825256;78;21223;-63
2021/04/12 08:08:59;;;;;;;17.15;14.20;;;;;;;14.10;31.88;99889.25;1826967;78;21534;-62
2021/04/12 08:11:54;;;;;;;17.37;13.88;;;;;;;14.15;31.98;99883.80;1799043;78;21069;-62
2021/04/12 08:15:01;;;;;;;19.27;14.60;;;;;;;14.23;31.34;99886.01;1827154;78;21068;-62
2021/04/12 08:18:19;;;;;;;22.98;13.53;;;;;;;14.25;31.58;99868.01;1827151;78;21076;-61
2021/04/12 08:21:23;;;;;;;16.82;12.82;;;;;;;14.34;31.64;99860.17;1827177;78;21105;-61
2021/04/12 08:24:20;;;;;;;15.28;12.98;;;;;;;14.45;30.49;99869.19;1814117;78;21364;-62
2021/04/12 08:27:05;;;;;;;18.15;13.85;;;;;;;14.55;30.46;99859.57;1825753;78;21172;-64
2021/04/12 08:30:23;;;;;;;18.02;14.50;;;;;;;14.62;30.26;99870.94;1826115;78;21568;-60
2021/04/12 08:33:06;;;;;;;21.12;14.07;;;;;;;14.66;30.43;99859.85;1827166;78;21489;-61
2021/04/12 08:35:52;;;;;;;20.95;14.43;;;;;;;14.75;30.41;99856.30;1766512;78;21107;-63
2021/04/12 08:38:55;;;;;;;22.17;14.75;;;;;;;14.82;30.47;99851.57;1817867;79;21194;-62
2021/04/12 08:42:02;;;;;;;15.88;12.78;;;;;;;14.92;30.32;99852.79;1817907;79;21175;-62
2021/04/12 08:44:49;;;;;;;20.15;14.63;;;;;;;14.97;28.04;99833.75;1817922;78;21055;-62
2021/04/12 08:48:01;;;;;;;17.82;15.68;;;;;;;14.99;28.65;99844.12;1817690;78;21559;-61
2021/04/12 08:51:06;;;;;;;18.73;14.50;;;;;;;14.99;28.49;99829.72;1818148;78;21040;-62
2021/04/12 08:54:01;;;;;;;23.42;15.55;;;;;;;15.00;28.61;99834.88;1817814;78;21369;-61
2021/04/12 08:56:45;;;;;;;19.90;14.00;;;;;;;15.01;28.68;99816.92;1816736;79;21079;-61
2021/04/12 09:00:00;;;;;;;18.67;15.95;;;;;;;15.09;28.93;99830.46;1817282;79;21150;-64
2021/04/12 09:02:56;;;;;;;15.32;12.30;;;;;;;15.19;28.68;99821.62;1817319;78;21078;-62
2021/04/12 09:05:53;;;;;;;24.15;13.83;;;;;;;15.32;26.70;99808.24;1817276;79;21107;-62
2021/04/12 09:09:00;;;;;;;17.62;14.47;;;;;;;15.35;26.96;99815.09;1817266;79;21349;-63
2021/04/12 09:12:10;;;;;;;19.95;16.42;;;;;;;15.37;27.22;99795.73;1817301;79;21061;-62
2021/04/12 09:15:01;;;;;;;19.77;14.98;;;;;;;15.49;27.56;99791.56;1817240;78;21161;-61
2021/04/12 09:18:24;;;;;;;24.37;20.32;;;;;;;15.61;27.58;99781.72;1817241;79;21055;-61
2021/04/12 09:21:35;;;;;;;20.02;14.85;;;;;;;15.70;27.88;99779.89;1820806;77;21476;-64
2021/04/12 09:24:37;;;;;;;22.13;17.23;;;;;;;15.78;27.21;99781.63;1761660;81;21288;-63
2021/04/12 09:27:30;;;;;;;21.55;14.85;;;;;;;15.80;27.03;99765.77;1795940;80;21150;-63
2021/04/12 09:30:12;;;;;;;24.02;14.20;;;;;;;15.82;26.85;99769.99;1762321;81;21166;-63
2021/04/12 09:33:28;;;;;;;19.00;14.60;;;;;;;15.87;26.68;99772.82;1794225;79;21198;-64
2021/04/12 09:36:13;;;;;;;16.80;13.72;;;;;;;15.87;26.60;99768.89;1765691;80;21231;-62
2021/04/12 09:39:07;;;;;;;14.90;12.68;;;;;;;15.88;26.40;99753.53;1797020;79;21366;-64
2021/04/12 09:42:00;;;;;;;16.93;13.32;;;;;;;15.94;25.93;99758.42;1766039;81;21570;-63
2021/04/12 09:45:13;;;;;;;18.50;14.13;;;;;;;15.99;26.51;99770.31;1797480;79;21127;-62
2021/04/12 09:48:22;;;;;;;19.82;14.83;;;;;;;15.96;27.08;99766.59;1786399;80;26753;-63
2021/04/12 09:51:44;;;;;;;20.30;14.53;;;;;;;15.92;26.65;99752.42;1797494;79;21484;-65
2021/04/12 09:54:44;;;;;;;22.37;15.20;;;;;;;15.99;26.27;99749.33;1764080;81;22001;-65
2021/04/12 09:57:46;;;;;;;18.32;14.38;;;;;;;16.03;26.50;99757.39;1766742;81;21524;-65
2021/04/12 10:00:28;;;;;;;27.62;16.87;;;;;;;15.97;26.45;99760.41;1772928;79;21174;-65
2021/04/12 10:03:29;;;;;;;19.65;15.08;;;;;;;16.00;26.97;99747.08;1824261;78;21143;-64
2021/04/12 10:06:19;;;;;;;19.67;15.13;;;;;;;16.15;26.99;99740.09;1798232;79;21115;-63
2021/04/12 10:09:18;;;;;;;22.30;16.15;;;;;;;16.28;26.26;99746.28;1827844;78;22398;-64
2021/04/12 10:11:54;;;;;;;20.85;15.68;;;;;;;16.27;26.14;99743.28;1798639;79;21147;-63
2021/04/12 10:17:15;;;;;;;21.97;14.68;;;;;;;16.45;26.86;99728.19;1888560;76;22037;-63
2021/04/12 10:19:54;;;;;;;19.57;15.08;;;;;;;16.57;26.53;99727.92;1774483;80;21504;-63
2021/04/12 10:22:57;;;;;;;16.70;14.53;;;;;;;16.78;26.31;99729.25;1807212;79;21422;-66
2021/04/12 10:26:01;;;;;;;19.65;13.70;;;;;;;16.95;26.48;99719.83;1849834;77;21019;-64
2021/04/12 10:29:23;;;;;;;16.77;14.50;;;;;;;17.27;25.84;99715.11;1885880;75;22691;-64
2021/04/12 10:32:01;;;;;;;19.12;14.95;;;;;;;17.28;25.53;99722.06;1850689;76;21063;-62
2021/04/12 10:34:37;;;;;;;19.35;13.03;;;;;;;17.34;25.60;99713.78;1861164;76;21188;-64
2021/04/12 10:37:13;;;;;;;14.93;12.60;;;;;;;17.42;24.79;99707.53;1819590;78;21500;-63
2021/04/12 10:40:19;;;;;;;16.80;12.68;;;;;;;17.50;24.75;99706.56;1815085;78;21175;-63
2021/04/12 10:43:15;;;;;;;16.02;11.85;;;;;;;17.62;24.95;99711.94;1816129;78;21203;-63
2021/04/12 10:46:10;;;;;;;17.75;12.73;;;;;;;17.73;24.04;99702.44;1769127;78;21198;-64
2021/04/12 10:49:10;;;;;;;13.50;11.70;;;;;;;17.79;24.33;99704.64;1814627;79;21349;-63
2021/04/12 10:52:15;;;;;;;14.83;10.85;;;;;;;17.81;23.70;99700.12;1817242;78;21146;-64
2021/04/12 10:54:53;;;;;;;12.93;10.60;;;;;;;17.88;23.49;99696.61;1793322;79;21110;-62
2021/04/12 10:57:41;;;;;;;17.17;11.85;;;;;;;17.99;23.69;99701.13;1807848;78;21043;-63
2021/04/12 11:00:27;;;;;;;13.20;11.88;;;;;;;18.05;23.88;99707.30;1802802;78;21153;-63
2021/04/12 11:03:44;;;;;;;15.95;11.93;;;;;;;18.08;23.46;99707.94;1802947;78;21611;-63
2021/04/12 11:06:26;;;;;;;13.58;11.97;;;;;;;18.03;23.41;99695.55;1735472;81;21163;-63
2021/04/12 11:09:31;;;;;;;13.88;11.55;;;;;;;18.07;23.61;99700.98;1733987;81;21207;-63
2021/04/12 11:12:19;;;;;;;14.55;11.48;;;;;;;18.13;22.83;99692.67;1734750;81;21667;-62
2021/04/12 11:15:09;;;;;;;15.10;10.90;;;;;;;18.08;22.60;99689.51;1889975;75;22595;-62
2021/04/12 11:18:15;;;;;;;13.10;11.70;;;;;;;18.01;22.61;99690.87;1861057;77;20926;-62
2021/04/12 11:20:56;;;;;;;13.45;11.65;;;;;;;18.03;22.68;99696.87;1826680;77;21195;-62
2021/04/12 11:23:41;;;;;;;25.75;12.18;;;;;;;18.04;22.97;99699.03;1860901;77;21473;-64
2021/04/12 11:26:29;;;;;;;17.25;11.28;;;;;;;18.01;23.40;99690.02;1860942;77;21557;-63
2021/04/12 11:29:15;;;;;;;14.80;11.18;;;;;;;18.05;23.29;99696.77;1814833;77;21450;-64
2021/04/12 11:32:03;;;;;;;13.20;10.40;;;;;;;18.08;23.05;99682.93;1832111;77;21478;-65
2021/04/12 11:34:44;;;;;;;14.65;11.15;;;;;;;18.17;23.03;99686.73;1860821;77;21869;-64
2021/04/12 11:37:32;;;;;;;13.75;10.65;;;;;;;18.29;23.12;99685.02;1879718;76;21047;-63
2021/04/12 11:40:08;;;;;;;14.38;10.45;;;;;;;18.38;22.49;99688.34;1881561;76;21038;-64
2021/04/12 11:42:39;;;;;;;12.63;9.85;;;;;;;18.37;22.32;99687.98;1796686;79;21044;-64
2021/04/12 11:45:12;;;;;;;12.90;10.60;;;;;;;18.24;22.12;99691.45;1767845;78;21123;-63
2021/04/12 11:47:43;;;;;;;;;;;;;;;18.08;22.17;99690.83;1825510;78;22298;-63
2021/04/12 11:50:34;;;;;;;11.30;9.05;;;;;;;17.95;22.52;99685.20;1818866;78;20212;-64
2021/04/12 11:53:23;;;;;;;12.43;9.15;;;;;;;17.80;22.40;99680.48;1807058;79;21560;-63
2021/04/12 11:56:03;;;;;;;19.45;9.18;;;;;;;17.60;22.58;99683.58;1822328;78;21106;-65
2021/04/12 11:59:19;;;;;;;12.03;8.88;;;;;;;17.43;22.77;99686.02;1807007;79;21103;-64
2021/04/12 12:01:57;;;;;;;13.00;8.43;;;;;;;17.21;22.66;99683.48;1822796;78;21251;-65
2021/04/12 12:04:42;;;;;;;10.30;7.83;;;;;;;16.89;22.78;99689.99;1805333;79;21500;-65
2021/04/12 12:07:30;;;;;;;11.53;8.65;;;;;;;16.72;22.49;99693.70;1822712;78;21110;-65
2021/04/12 12:10:16;;;;;;;13.03;7.78;;;;;;;16.54;22.42;99683.00;1822769;78;21691;-62
2021/04/12 12:13:23;;;;;;;10.80;8.03;;;;;;;16.32;22.47;99681.33;1806896;79;21068;-66
2021/04/12 12:16:17;;;;;;;15.13;8.38;;;;;;;16.11;22.81;99669.90;1822751;78;21191;-65
2021/04/12 12:19:26;;;;;;;13.25;8.45;;;;;;;16.02;23.49;99674.84;1806945;79;21084;-64
2021/04/12 12:22:21;;;;;;;12.13;9.45;;;;;;;15.92;23.72;99677.20;1822674;78;21048;-64
2021/04/12 12:25:24;;;;;;;10.13;8.53;;;;;;;15.76;24.40;99671.18;1806726;79;21174;-64
2021/04/12 12:28:20;;;;;;;9.45;8.40;;;;;;;15.63;25.06;99672.36;1822280;78;20910;-65
2021/04/12 12:31:10;;;;;;;10.80;8.65;;;;;;;15.48;25.56;99670.14;1806391;79;21435;-64
2021/04/12 12:33:50;;;;;;;9.58;7.80;;;;;;;15.34;26.11;99673.19;1822070;78;21611;-65
2021/04/12 12:36:23;;;;;;;14.43;8.53;;;;;;;15.22;26.62;99677.81;1806434;79;21611;-63
2021/04/12 12:39:05;;;;;;;14.60;9.13;;;;;;;15.10;26.71;99679.36;1792287;78;21178;-62
2021/04/12 12:41:43;;;;;;;9.28;7.72;;;;;;;14.95;26.90;99678.45;1806568;79;21671;-63
2021/04/12 12:44:13;;;;;;;14.15;8.80;;;;;;;14.83;27.27;99677.81;1793911;78;21436;-63
2021/04/12 12:46:42;;;;;;;15.55;11.73;;;;;;;14.73;27.93;99673.56;1806321;79;21119;-63
2021/04/12 12:49:29;;;;;;;12.78;8.25;;;;;;;14.66;28.25;99666.97;1822123;78;21007;-64
2021/04/12 12:52:00;;;;;;;9.78;7.65;;;;;;;14.61;28.57;99662.91;1806462;79;21051;-64
2021/04/12 12:54:51;;;;;;;12.23;8.78;;;;;;;14.57;28.88;99664.88;1822235;78;21123;-63
2021/04/12 13:00:18;;;;;;;8.98;7.08;;;;;;;14.42;29.41;99665.22;1702637;83;21705;-64
2021/04/12 13:02:46;;;;;;;8.98;6.22;;;;;;;14.35;29.80;99665.16;1727674;83;21191;-64
2021/04/12 13:05:27;;;;;;;15.75;11.20;;;;;;;14.29;30.24;99665.94;1727074;83;21199;-66
2021/04/12 13:08:11;;;;;;;6.70;5.20;;;;;;;14.24;30.71;99660.95;1727925;83;21103;-62
2021/04/12 13:10:49;;;;;;;6.50;4.22;;;;;;;14.21;31.09;99667.64;1873308;75;22803;-64
2021/04/12 13:13:30;;;;;;;7.15;4.50;;;;;;;14.14;31.43;99664.53;1838674;77;21029;-64
2021/04/12 13:16:02;;;;;;;9.13;4.53;;;;;;;14.10;31.92;99668.69;1841488;77;22179;-63
2021/04/12 13:18:31;;;;;;;5.92;4.08;;;;;;;14.06;32.15;99664.08;1840337;77;20962;-64
2021/04/12 13:21:22;;;;;;;11.10;8.05;;;;;;;14.03;32.33;99667.31;1841543;78;21545;-64
2021/04/12 13:23:56;;;;;;;8.50;6.00;;;;;;;13.99;32.59;99667.92;1841507;78;21156;-63
2021/04/12 13:26:59;;;;;;;14.95;7.97;;;;;;;13.93;32.20;99664.80;1841569;78;21107;-64
2021/04/12 13:29:34;;;;;;;12.20;10.90;;;;;;;13.86;32.00;99668.19;1841444;77;21369;-64
2021/04/12 13:32:23;;;;;;;10.05;7.15;;;;;;;13.78;31.76;99675.14;1841495;77;21544;-63
2021/04/12 13:35:01;;;;;;;11.53;7.80;;;;;;;13.72;31.93;99662.84;1841519;78;21545;-64